sensor_id;sensor_type;location;lat;lon;timestamp;temperature;humidity
28071;DHT22;15383;48.408;9.968;2022-09-12T00:02:00;18.00;91.10
28071;DHT22;15383;48.408;9.968;2022-09-12T00:04:26;18.00;91.20
28071;DHT22;15383;48.408;9.968;2022-09-12T00:06:52;18.00;91.10
28071;DHT22;15383;48.408;9.968;2022-09-12T00:09:18;18.00;91.50
28071;DHT22;15383;48.408;9.968;2022-09-12T00:11:45;18.00;91.10
28071;DHT22;15383;48.408;9.968;2022-09-12T00:14:15;17.90;91.10
28071;DHT22;15383;48.408;9.968;2022-09-12T00:16:40;18.00;91.10
28071;DHT22;15383;48.408;9.968;2022-09-12T00:19:07;18.00;91.10
28071;DHT22;15383;48.408;9.968;2022-09-12T00:21:35;17.90;91.10
28071;DHT22;15383;48.408;9.968;2022-09-12T00:24:01;17.90;91.10
28071;DHT22;15383;48.408;9.968;2022-09-12T00:26:26;17.90;91.10
28071;DHT22;15383;48.408;9.968;2022-09-12T00:28:52;17.90;91.10
28071;DHT22;15383;48.408;9.968;2022-09-12T00:31:20;17.90;91.10
28071;DHT22;15383;48.408;9.968;2022-09-12T00:33:48;17.90;91.10
28071;DHT22;15383;48.408;9.968;2022-09-12T00:36:16;17.90;91.10
28071;DHT22;15383;48.408;9.968;2022-09-12T00:38:43;17.90;91.10
28071;DHT22;15383;48.408;9.968;2022-09-12T00:41:35;17.90;91.10
28071;DHT22;15383;48.408;9.968;2022-09-12T00:46:49;17.90;91.10
28071;DHT22;15383;48.408;9.968;2022-09-12T00:49:32;17.90;91.10
28071;DHT22;15383;48.408;9.968;2022-09-12T00:54:31;17.80;91.10
28071;DHT22;15383;48.408;9.968;2022-09-12T00:57:00;17.80;91.10
28071;DHT22;15383;48.408;9.968;2022-09-12T00:59:38;17.80;91.10
28071;DHT22;15383;48.408;9.968;2022-09-12T01:02:05;17.80;91.10
28071;DHT22;15383;48.408;9.968;2022-09-12T01:04:31;17.80;91.10
28071;DHT22;15383;48.408;9.968;2022-09-12T01:06:57;17.80;91.10
28071;DHT22;15383;48.408;9.968;2022-09-12T01:09:23;17.80;91.10
28071;DHT22;15383;48.408;9.968;2022-09-12T01:11:51;17.80;91.10
28071;DHT22;15383;48.408;9.968;2022-09-12T01:14:18;17.80;91.50
28071;DHT22;15383;48.408;9.968;2022-09-12T01:16:45;17.80;91.10
28071;DHT22;15383;48.408;9.968;2022-09-12T03:33:59;17.60;91.00
28071;DHT22;15383;48.408;9.968;2022-09-12T04:31:18;17.40;90.80
28071;DHT22;15383;48.408;9.968;2022-09-12T04:44:07;17.40;90.80
28071;DHT22;15383;48.408;9.968;2022-09-12T07:51:36;18.20;90.00
28071;DHT22;15383;48.408;9.968;2022-09-12T07:54:06;18.30;90.00
28071;DHT22;15383;48.408;9.968;2022-09-12T07:56:33;18.40;90.10
28071;DHT22;15383;48.408;9.968;2022-09-12T07:58:59;18.50;90.10
28071;DHT22;15383;48.408;9.968;2022-09-12T08:01:25;18.60;90.10
28071;DHT22;15383;48.408;9.968;2022-09-12T08:03:56;18.60;90.10
28071;DHT22;15383;48.408;9.968;2022-09-12T08:06:22;18.70;90.00
28071;DHT22;15383;48.408;9.968;2022-09-12T08:08:49;18.80;89.90
28071;DHT22;15383;48.408;9.968;2022-09-12T08:11:17;18.80;89.70
28071;DHT22;15383;48.408;9.968;2022-09-12T08:13:43;18.90;89.40
28071;DHT22;15383;48.408;9.968;2022-09-12T08:16:15;19.00;89.20
28071;DHT22;15383;48.408;9.968;2022-09-12T08:18:42;19.00;88.90
28071;DHT22;15383;48.408;9.968;2022-09-12T08:21:13;19.10;88.70
28071;DHT22;15383;48.408;9.968;2022-09-12T08:23:40;19.10;88.50
28071;DHT22;15383;48.408;9.968;2022-09-12T08:26:06;19.20;88.30
28071;DHT22;15383;48.408;9.968;2022-09-12T08:28:34;19.20;88.10
28071;DHT22;15383;48.408;9.968;2022-09-12T08:31:04;19.30;87.90
28071;DHT22;15383;48.408;9.968;2022-09-12T08:33:30;19.30;87.70
28071;DHT22;15383;48.408;9.968;2022-09-12T08:36:36;19.40;87.50
28071;DHT22;15383;48.408;9.968;2022-09-12T08:38:57;19.40;87.40
28071;DHT22;15383;48.408;9.968;2022-09-12T08:55:26;19.70;86.40
28071;DHT22;15383;48.408;9.968;2022-09-12T08:57:53;19.70;86.20
28071;DHT22;15383;48.408;9.968;2022-09-12T09:00:19;19.70;86.10
28071;DHT22;15383;48.408;9.968;2022-09-12T09:03:03;19.70;85.90
28071;DHT22;15383;48.408;9.968;2022-09-12T09:05:50;19.80;85.90
28071;DHT22;15383;48.408;9.968;2022-09-12T09:08:28;19.80;85.80
28071;DHT22;15383;48.408;9.968;2022-09-12T09:21:02;19.80;85.50
28071;DHT22;15383;48.408;9.968;2022-09-12T09:23:38;19.80;85.50
28071;DHT22;15383;48.408;9.968;2022-09-12T09:26:13;19.80;85.40
28071;DHT22;15383;48.408;9.968;2022-09-12T09:29:10;19.80;85.50
28071;DHT22;15383;48.408;9.968;2022-09-12T09:31:40;19.80;85.60
28071;DHT22;15383;48.408;9.968;2022-09-12T09:34:17;19.80;85.60
28071;DHT22;15383;48.408;9.968;2022-09-12T09:37:01;19.80;85.70
28071;DHT22;15383;48.408;9.968;2022-09-12T09:44:47;19.70;85.90
28071;DHT22;15383;48.408;9.968;2022-09-12T09:47:14;19.70;85.90
28071;DHT22;15383;48.408;9.968;2022-09-12T09:49:40;19.60;85.90
28071;DHT22;15383;48.408;9.968;2022-09-12T09:52:07;19.60;86.10
28071;DHT22;15383;48.408;9.968;2022-09-12T09:54:39;19.60;86.10
28071;DHT22;15383;48.408;9.968;2022-09-12T10:00:28;19.50;86.20
28071;DHT22;15383;48.408;9.968;2022-09-12T10:03:00;19.60;86.40
28071;DHT22;15383;48.408;9.968;2022-09-12T10:05:27;19.50;86.40
28071;DHT22;15383;48.408;9.968;2022-09-12T10:07:54;19.50;86.50
28071;DHT22;15383;48.408;9.968;2022-09-12T10:10:19;19.50;86.60
28071;DHT22;15383;48.408;9.968;2022-09-12T10:12:48;19.40;86.60
28071;DHT22;15383;48.408;9.968;2022-09-12T10:15:20;19.40;86.70
28071;DHT22;15383;48.408;9.968;2022-09-12T10:17:50;19.40;86.70
28071;DHT22;15383;48.408;9.968;2022-09-12T10:22:56;19.40;86.90
28071;DHT22;15383;48.408;9.968;2022-09-12T10:25:24;19.40;87.00
28071;DHT22;15383;48.408;9.968;2022-09-12T10:27:58;19.40;87.10
28071;DHT22;15383;48.408;9.968;2022-09-12T10:30:26;19.30;87.20
28071;DHT22;15383;48.408;9.968;2022-09-12T10:33:05;19.30;87.20
28071;DHT22;15383;48.408;9.968;2022-09-12T10:35:44;19.30;87.30
28071;DHT22;15383;48.408;9.968;2022-09-12T10:38:24;19.30;87.40
28071;DHT22;15383;48.408;9.968;2022-09-12T10:41:06;19.30;87.40
28071;DHT22;15383;48.408;9.968;2022-09-12T10:46:19;19.20;87.50
28071;DHT22;15383;48.408;9.968;2022-09-12T10:49:12;19.20;87.60
28071;DHT22;15383;48.408;9.968;2022-09-12T10:51:38;19.20;87.60
28071;DHT22;15383;48.408;9.968;2022-09-12T10:54:07;19.20;87.70
28071;DHT22;15383;48.408;9.968;2022-09-12T11:02:29;19.20;87.80
28071;DHT22;15383;48.408;9.968;2022-09-12T11:08:21;19.20;87.90
28071;DHT22;15383;48.408;9.968;2022-09-12T11:10:59;19.20;88.00
28071;DHT22;15383;48.408;9.968;2022-09-12T11:16:26;19.20;88.00
28071;DHT22;15383;48.408;9.968;2022-09-12T11:30:11;19.10;88.20
28071;DHT22;15383;48.408;9.968;2022-09-12T11:35:52;19.10;88.20
28071;DHT22;15383;48.408;9.968;2022-09-12T11:41:04;19.10;88.20
28071;DHT22;15383;48.408;9.968;2022-09-12T11:43:51;19.10;88.20
28071;DHT22;15383;48.408;9.968;2022-09-12T11:52:12;19.20;88.30
28071;DHT22;15383;48.408;9.968;2022-09-12T11:54:23;19.10;89.10
28071;DHT22;15383;48.408;9.968;2022-09-12T11:57:00;19.10;88.40
28071;DHT22;15383;48.408;9.968;2022-09-12T11:59:38;19.10;88.40
28071;DHT22;15383;48.408;9.968;2022-09-12T12:02:12;19.10;88.40
28071;DHT22;15383;48.408;9.968;2022-09-12T12:04:55;19.10;89.20
28071;DHT22;15383;48.408;9.968;2022-09-12T12:07:24;19.20;88.60
28071;DHT22;15383;48.408;9.968;2022-09-12T12:09:51;19.10;88.50
28071;DHT22;15383;48.408;9.968;2022-09-12T12:12:21;19.20;88.60
28071;DHT22;15383;48.408;9.968;2022-09-12T12:14:51;19.20;88.70
28071;DHT22;15383;48.408;9.968;2022-09-12T12:17:24;19.20;88.70
28071;DHT22;15383;48.408;9.968;2022-09-12T12:20:02;19.20;89.40
28071;DHT22;15383;48.408;9.968;2022-09-12T12:22:29;19.20;88.70
28071;DHT22;15383;48.408;9.968;2022-09-12T12:25:21;19.20;88.70
28071;DHT22;15383;48.408;9.968;2022-09-12T12:27:58;19.20;88.80
28071;DHT22;15383;48.408;9.968;2022-09-12T12:35:42;19.20;88.90
28071;DHT22;15383;48.408;9.968;2022-09-12T12:38:31;19.20;88.90
28071;DHT22;15383;48.408;9.968;2022-09-12T12:43:45;19.20;88.90
28071;DHT22;15383;48.408;9.968;2022-09-12T12:46:16;19.20;89.00
28071;DHT22;15383;48.408;9.968;2022-09-12T12:48:50;19.20;89.00
28071;DHT22;15383;48.408;9.968;2022-09-12T12:54:28;19.20;89.10
28071;DHT22;15383;48.408;9.968;2022-09-12T12:59:49;19.20;89.10
28071;DHT22;15383;48.408;9.968;2022-09-12T13:02:48;19.20;89.10
28071;DHT22;15383;48.408;9.968;2022-09-12T13:05:19;19.20;89.20
28071;DHT22;15383;48.408;9.968;2022-09-12T13:07:46;19.20;89.20
28071;DHT22;15383;48.408;9.968;2022-09-12T13:10:36;19.20;89.20
28071;DHT22;15383;48.408;9.968;2022-09-12T13:13:05;19.20;89.20
28071;DHT22;15383;48.408;9.968;2022-09-12T13:18:06;19.20;89.30
28071;DHT22;15383;48.408;9.968;2022-09-12T13:20:43;19.20;89.30
28071;DHT22;15383;48.408;9.968;2022-09-12T13:23:28;19.20;89.30
28071;DHT22;15383;48.408;9.968;2022-09-12T13:25:56;19.20;89.40
28071;DHT22;15383;48.408;9.968;2022-09-12T13:28:25;19.20;89.40
28071;DHT22;15383;48.408;9.968;2022-09-12T13:33:44;19.20;89.40
28071;DHT22;15383;48.408;9.968;2022-09-12T13:44:41;19.30;89.60
28071;DHT22;15383;48.408;9.968;2022-09-12T13:47:14;19.20;89.60
28071;DHT22;15383;48.408;9.968;2022-09-12T13:49:41;19.20;89.60
28071;DHT22;15383;48.408;9.968;2022-09-12T13:52:18;19.20;89.60
28071;DHT22;15383;48.408;9.968;2022-09-12T13:54:47;19.20;89.60
28071;DHT22;15383;48.408;9.968;2022-09-12T13:57:37;19.20;89.60
28071;DHT22;15383;48.408;9.968;2022-09-12T14:00:11;19.30;89.50
28071;DHT22;15383;48.408;9.968;2022-09-12T14:02:39;19.30;89.50
28071;DHT22;15383;48.408;9.968;2022-09-12T14:05:23;19.30;89.50
28071;DHT22;15383;48.408;9.968;2022-09-12T14:07:54;19.20;89.40
28071;DHT22;15383;48.408;9.968;2022-09-12T14:12:57;19.20;89.50
28071;DHT22;15383;48.408;9.968;2022-09-12T14:15:27;19.20;89.50
28071;DHT22;15383;48.408;9.968;2022-09-12T14:17:56;19.20;89.50
28071;DHT22;15383;48.408;9.968;2022-09-12T14:20:24;19.20;89.50
28071;DHT22;15383;48.408;9.968;2022-09-12T14:22:51;19.20;89.60
28071;DHT22;15383;48.408;9.968;2022-09-12T14:25:22;19.20;89.60
28071;DHT22;15383;48.408;9.968;2022-09-12T14:27:54;19.30;89.70
28071;DHT22;15383;48.408;9.968;2022-09-12T14:30:28;19.20;89.60
28071;DHT22;15383;48.408;9.968;2022-09-12T14:33:15;19.20;89.60
28071;DHT22;15383;48.408;9.968;2022-09-12T14:40:47;19.20;89.40
28071;DHT22;15383;48.408;9.968;2022-09-12T14:43:26;19.20;89.40
28071;DHT22;15383;48.408;9.968;2022-09-12T14:46:05;19.20;89.40
28071;DHT22;15383;48.408;9.968;2022-09-12T14:48:34;19.20;88.90
28071;DHT22;15383;48.408;9.968;2022-09-12T14:51:01;19.30;88.60
28071;DHT22;15383;48.408;9.968;2022-09-12T14:53:35;19.30;88.60
28071;DHT22;15383;48.408;9.968;2022-09-12T14:56:10;19.30;88.60
28071;DHT22;15383;48.408;9.968;2022-09-12T14:58:38;19.30;88.60
28071;DHT22;15383;48.408;9.968;2022-09-12T15:06:29;19.30;88.80
28071;DHT22;15383;48.408;9.968;2022-09-12T15:08:57;19.20;88.70
28071;DHT22;15383;48.408;9.968;2022-09-12T15:11:23;19.20;88.70
28071;DHT22;15383;48.408;9.968;2022-09-12T15:13:49;19.20;88.70
28071;DHT22;15383;48.408;9.968;2022-09-12T15:16:15;19.20;88.60
28071;DHT22;15383;48.408;9.968;2022-09-12T15:18:41;19.20;88.60
28071;DHT22;15383;48.408;9.968;2022-09-12T15:21:13;19.20;88.60
28071;DHT22;15383;48.408;9.968;2022-09-12T15:23:44;19.20;88.50
28071;DHT22;15383;48.408;9.968;2022-09-12T15:26:12;19.30;88.70
28071;DHT22;15383;48.408;9.968;2022-09-12T15:28:38;19.20;88.70
28071;DHT22;15383;48.408;9.968;2022-09-12T15:31:14;19.20;88.60
28071;DHT22;15383;48.408;9.968;2022-09-12T15:33:40;19.20;88.60
28071;DHT22;15383;48.408;9.968;2022-09-12T15:36:16;19.20;88.60
28071;DHT22;15383;48.408;9.968;2022-09-12T15:38:43;19.20;88.50
28071;DHT22;15383;48.408;9.968;2022-09-12T15:41:12;19.20;88.40
28071;DHT22;15383;48.408;9.968;2022-09-12T15:43:39;19.20;88.40
28071;DHT22;15383;48.408;9.968;2022-09-12T15:46:04;19.20;88.40
28071;DHT22;15383;48.408;9.968;2022-09-12T15:48:31;19.20;88.50
28071;DHT22;15383;48.408;9.968;2022-09-12T15:50:57;19.20;88.30
28071;DHT22;15383;48.408;9.968;2022-09-12T15:53:26;19.20;88.40
28071;DHT22;15383;48.408;9.968;2022-09-12T15:55:52;19.20;88.40
28071;DHT22;15383;48.408;9.968;2022-09-12T15:58:17;19.20;88.30
28071;DHT22;15383;48.408;9.968;2022-09-12T16:00:43;19.20;88.40
28071;DHT22;15383;48.408;9.968;2022-09-12T16:03:23;19.20;88.50
28071;DHT22;15383;48.408;9.968;2022-09-12T16:05:54;19.20;88.50
28071;DHT22;15383;48.408;9.968;2022-09-12T16:08:20;19.20;88.50
28071;DHT22;15383;48.408;9.968;2022-09-12T16:10:50;19.20;88.70
28071;DHT22;15383;48.408;9.968;2022-09-12T16:13:17;19.20;88.70
28071;DHT22;15383;48.408;9.968;2022-09-12T16:15:42;19.20;88.60
28071;DHT22;15383;48.408;9.968;2022-09-12T16:18:08;19.20;88.50
28071;DHT22;15383;48.408;9.968;2022-09-12T16:20:34;19.20;88.40
28071;DHT22;15383;48.408;9.968;2022-09-12T16:22:59;19.20;88.50
28071;DHT22;15383;48.408;9.968;2022-09-12T16:25:25;19.20;88.50
28071;DHT22;15383;48.408;9.968;2022-09-12T16:27:50;19.20;88.50
28071;DHT22;15383;48.408;9.968;2022-09-12T16:30:16;19.20;88.50
28071;DHT22;15383;48.408;9.968;2022-09-12T16:32:42;19.10;88.50
28071;DHT22;15383;48.408;9.968;2022-09-12T16:35:08;19.20;88.60
28071;DHT22;15383;48.408;9.968;2022-09-12T16:37:34;19.20;88.50
28071;DHT22;15383;48.408;9.968;2022-09-12T16:40:00;19.20;88.50
28071;DHT22;15383;48.408;9.968;2022-09-12T16:42:26;19.10;88.40
28071;DHT22;15383;48.408;9.968;2022-09-12T16:44:52;19.10;88.50
28071;DHT22;15383;48.408;9.968;2022-09-12T16:47:17;19.20;88.50
28071;DHT22;15383;48.408;9.968;2022-09-12T16:49:43;19.10;88.60
28071;DHT22;15383;48.408;9.968;2022-09-12T16:52:09;19.10;88.60
28071;DHT22;15383;48.408;9.968;2022-09-12T16:54:35;19.10;88.70
28071;DHT22;15383;48.408;9.968;2022-09-12T16:57:01;19.20;88.70
28071;DHT22;15383;48.408;9.968;2022-09-12T16:59:29;19.10;88.70
28071;DHT22;15383;48.408;9.968;2022-09-12T17:01:55;19.10;88.80
28071;DHT22;15383;48.408;9.968;2022-09-12T17:04:20;19.10;88.90
28071;DHT22;15383;48.408;9.968;2022-09-12T17:06:46;19.10;88.90
28071;DHT22;15383;48.408;9.968;2022-09-12T17:09:12;19.10;89.00
28071;DHT22;15383;48.408;9.968;2022-09-12T17:11:43;19.10;89.10
28071;DHT22;15383;48.408;9.968;2022-09-12T17:14:09;19.10;89.10
28071;DHT22;15383;48.408;9.968;2022-09-12T17:16:37;19.10;89.20
28071;DHT22;15383;48.408;9.968;2022-09-12T17:19:04;19.10;89.20
28071;DHT22;15383;48.408;9.968;2022-09-12T17:21:31;19.10;89.30
28071;DHT22;15383;48.408;9.968;2022-09-12T17:23:56;19.10;89.30
28071;DHT22;15383;48.408;9.968;2022-09-12T17:26:23;19.10;89.30
28071;DHT22;15383;48.408;9.968;2022-09-12T17:28:49;19.10;89.40
28071;DHT22;15383;48.408;9.968;2022-09-12T17:31:15;19.10;89.40
28071;DHT22;15383;48.408;9.968;2022-09-12T17:33:41;19.10;89.50
28071;DHT22;15383;48.408;9.968;2022-09-12T17:36:09;19.10;89.50
28071;DHT22;15383;48.408;9.968;2022-09-12T17:38:37;19.10;89.50
28071;DHT22;15383;48.408;9.968;2022-09-12T17:41:18;19.10;89.50
28071;DHT22;15383;48.408;9.968;2022-09-12T17:43:46;19.10;89.50
28071;DHT22;15383;48.408;9.968;2022-09-12T17:46:18;19.00;89.40
28071;DHT22;15383;48.408;9.968;2022-09-12T17:48:43;19.00;89.40
28071;DHT22;15383;48.408;9.968;2022-09-12T17:51:13;19.00;89.40
28071;DHT22;15383;48.408;9.968;2022-09-12T17:53:42;19.00;90.10
28071;DHT22;15383;48.408;9.968;2022-09-12T17:56:08;19.00;89.40
28071;DHT22;15383;48.408;9.968;2022-09-12T17:58:35;19.00;89.40
28071;DHT22;15383;48.408;9.968;2022-09-12T18:01:02;19.00;89.40
28071;DHT22;15383;48.408;9.968;2022-09-12T18:03:47;19.00;89.40
28071;DHT22;15383;48.408;9.968;2022-09-12T18:06:12;19.00;89.40
28071;DHT22;15383;48.408;9.968;2022-09-12T18:08:39;19.00;89.40
28071;DHT22;15383;48.408;9.968;2022-09-12T18:11:05;19.00;89.40
28071;DHT22;15383;48.408;9.968;2022-09-12T18:13:32;19.00;89.40
28071;DHT22;15383;48.408;9.968;2022-09-12T18:16:05;19.00;89.40
28071;DHT22;15383;48.408;9.968;2022-09-12T18:18:33;18.90;89.30
28071;DHT22;15383;48.408;9.968;2022-09-12T18:20:59;19.00;89.50
28071;DHT22;15383;48.408;9.968;2022-09-12T18:23:24;18.90;89.40
28071;DHT22;15383;48.408;9.968;2022-09-12T18:26:05;18.90;89.40
28071;DHT22;15383;48.408;9.968;2022-09-12T18:28:32;18.90;89.40
28071;DHT22;15383;48.408;9.968;2022-09-12T18:30:58;18.90;89.50
28071;DHT22;15383;48.408;9.968;2022-09-12T18:33:23;18.90;89.40
28071;DHT22;15383;48.408;9.968;2022-09-12T18:35:49;18.90;89.50
28071;DHT22;15383;48.408;9.968;2022-09-12T18:38:15;18.90;89.50
28071;DHT22;15383;48.408;9.968;2022-09-12T18:40:40;18.90;89.50
28071;DHT22;15383;48.408;9.968;2022-09-12T18:43:06;18.90;89.60
28071;DHT22;15383;48.408;9.968;2022-09-12T18:45:33;18.80;89.50
28071;DHT22;15383;48.408;9.968;2022-09-12T18:47:59;18.80;89.50
28071;DHT22;15383;48.408;9.968;2022-09-12T18:50:24;18.80;89.60
28071;DHT22;15383;48.408;9.968;2022-09-12T18:52:53;18.80;89.60
28071;DHT22;15383;48.408;9.968;2022-09-12T18:55:19;18.80;89.60
28071;DHT22;15383;48.408;9.968;2022-09-12T18:57:45;18.80;89.70
28071;DHT22;15383;48.408;9.968;2022-09-12T19:00:11;18.80;89.70
28071;DHT22;15383;48.408;9.968;2022-09-12T19:02:38;18.80;89.70
28071;DHT22;15383;48.408;9.968;2022-09-12T19:05:04;18.80;89.80
28071;DHT22;15383;48.408;9.968;2022-09-12T19:14:05;18.70;89.90
28071;DHT22;15383;48.408;9.968;2022-09-12T19:16:51;18.70;89.90
28071;DHT22;15383;48.408;9.968;2022-09-12T19:19:31;18.70;89.90
28071;DHT22;15383;48.408;9.968;2022-09-12T19:21:57;18.70;90.00
28071;DHT22;15383;48.408;9.968;2022-09-12T19:24:23;18.70;90.00
28071;DHT22;15383;48.408;9.968;2022-09-12T19:26:48;18.70;90.00
28071;DHT22;15383;48.408;9.968;2022-09-12T19:29:15;18.70;90.40
28071;DHT22;15383;48.408;9.968;2022-09-12T19:31:42;18.70;90.00
28071;DHT22;15383;48.408;9.968;2022-09-12T19:34:09;18.70;90.10
28071;DHT22;15383;48.408;9.968;2022-09-12T19:36:36;18.60;90.00
28071;DHT22;15383;48.408;9.968;2022-09-12T19:39:03;18.60;90.00
28071;DHT22;15383;48.408;9.968;2022-09-12T19:41:32;18.60;90.00
28071;DHT22;15383;48.408;9.968;2022-09-12T19:43:58;18.60;90.10
28071;DHT22;15383;48.408;9.968;2022-09-12T19:46:25;18.60;90.10
28071;DHT22;15383;48.408;9.968;2022-09-12T19:48:51;18.60;90.10
28071;DHT22;15383;48.408;9.968;2022-09-12T19:54:46;18.60;90.10
28071;DHT22;15383;48.408;9.968;2022-09-12T19:57:12;18.60;90.10
28071;DHT22;15383;48.408;9.968;2022-09-12T20:03:09;18.50;90.10
28071;DHT22;15383;48.408;9.968;2022-09-12T20:05:34;18.50;90.10
28071;DHT22;15383;48.408;9.968;2022-09-12T20:08:00;18.60;90.20
28071;DHT22;15383;48.408;9.968;2022-09-12T20:10:27;18.50;90.20
28071;DHT22;15383;48.408;9.968;2022-09-12T20:12:53;18.50;90.20
28071;DHT22;15383;48.408;9.968;2022-09-12T20:15:18;18.50;90.20
28071;DHT22;15383;48.408;9.968;2022-09-12T20:17:44;18.50;90.20
28071;DHT22;15383;48.408;9.968;2022-09-12T20:20:10;18.50;90.20
28071;DHT22;15383;48.408;9.968;2022-09-12T20:22:39;18.50;90.20
28071;DHT22;15383;48.408;9.968;2022-09-12T20:25:05;18.50;90.20
28071;DHT22;15383;48.408;9.968;2022-09-12T20:27:31;18.50;90.20
28071;DHT22;15383;48.408;9.968;2022-09-12T20:29:56;18.50;90.20
28071;DHT22;15383;48.408;9.968;2022-09-12T20:32:25;18.40;90.20
28071;DHT22;15383;48.408;9.968;2022-09-12T20:34:53;18.40;90.20
28071;DHT22;15383;48.408;9.968;2022-09-12T20:37:21;18.50;90.20
28071;DHT22;15383;48.408;9.968;2022-09-12T20:39:47;18.40;90.30
28071;DHT22;15383;48.408;9.968;2022-09-12T20:42:12;18.50;90.30
28071;DHT22;15383;48.408;9.968;2022-09-12T20:44:41;18.40;90.30
28071;DHT22;15383;48.408;9.968;2022-09-12T20:47:07;18.40;90.30
28071;DHT22;15383;48.408;9.968;2022-09-12T20:49:32;18.40;90.30
28071;DHT22;15383;48.408;9.968;2022-09-12T20:52:01;18.40;90.30
28071;DHT22;15383;48.408;9.968;2022-09-12T20:54:27;18.40;90.30
28071;DHT22;15383;48.408;9.968;2022-09-12T20:56:52;18.40;90.30
28071;DHT22;15383;48.408;9.968;2022-09-12T20:59:18;18.40;90.30
28071;DHT22;15383;48.408;9.968;2022-09-12T21:01:46;18.40;90.30
28071;DHT22;15383;48.408;9.968;2022-09-12T21:04:11;18.40;90.30
28071;DHT22;15383;48.408;9.968;2022-09-12T21:06:37;18.40;90.30
28071;DHT22;15383;48.408;9.968;2022-09-12T21:09:02;18.40;90.40
28071;DHT22;15383;48.408;9.968;2022-09-12T21:11:28;18.40;90.40
28071;DHT22;15383;48.408;9.968;2022-09-12T21:13:54;18.30;90.30
28071;DHT22;15383;48.408;9.968;2022-09-12T21:16:21;18.30;90.30
28071;DHT22;15383;48.408;9.968;2022-09-12T21:18:52;18.30;90.30
28071;DHT22;15383;48.408;9.968;2022-09-12T21:21:18;18.30;90.30
28071;DHT22;15383;48.408;9.968;2022-09-12T21:23:45;18.30;90.30
28071;DHT22;15383;48.408;9.968;2022-09-12T21:26:10;18.30;90.30
28071;DHT22;15383;48.408;9.968;2022-09-12T21:28:36;18.30;90.40
28071;DHT22;15383;48.408;9.968;2022-09-12T21:31:02;18.30;90.40
28071;DHT22;15383;48.408;9.968;2022-09-12T21:33:28;18.30;90.40
28071;DHT22;15383;48.408;9.968;2022-09-12T21:35:53;18.30;90.40
28071;DHT22;15383;48.408;9.968;2022-09-12T21:38:19;18.30;90.40
28071;DHT22;15383;48.408;9.968;2022-09-12T21:40:46;18.30;90.40
28071;DHT22;15383;48.408;9.968;2022-09-12T21:43:12;18.20;90.40
28071;DHT22;15383;48.408;9.968;2022-09-12T21:45:38;18.20;90.40
28071;DHT22;15383;48.408;9.968;2022-09-12T21:48:04;18.30;90.40
28071;DHT22;15383;48.408;9.968;2022-09-12T21:50:30;18.20;90.40
28071;DHT22;15383;48.408;9.968;2022-09-12T21:52:55;18.20;90.70
28071;DHT22;15383;48.408;9.968;2022-09-12T21:55:21;18.30;90.40
28071;DHT22;15383;48.408;9.968;2022-09-12T21:57:54;18.20;90.40
28071;DHT22;15383;48.408;9.968;2022-09-12T22:00:20;18.30;90.40
28071;DHT22;15383;48.408;9.968;2022-09-12T22:02:46;18.20;90.40
28071;DHT22;15383;48.408;9.968;2022-09-12T22:05:12;18.20;90.50
28071;DHT22;15383;48.408;9.968;2022-09-12T22:11:49;18.20;90.40
28071;DHT22;15383;48.408;9.968;2022-09-12T22:14:21;18.20;90.40
28071;DHT22;15383;48.408;9.968;2022-09-12T22:16:46;18.20;90.50
28071;DHT22;15383;48.408;9.968;2022-09-12T22:19:21;18.20;90.50
28071;DHT22;15383;48.408;9.968;2022-09-12T22:21:47;18.20;90.50
28071;DHT22;15383;48.408;9.968;2022-09-12T22:24:31;18.20;90.50
28071;DHT22;15383;48.408;9.968;2022-09-12T22:26:57;18.20;90.50
28071;DHT22;15383;48.408;9.968;2022-09-12T22:29:25;18.10;90.50
28071;DHT22;15383;48.408;9.968;2022-09-12T22:31:51;18.20;90.50
28071;DHT22;15383;48.408;9.968;2022-09-12T22:34:17;18.10;90.50
28071;DHT22;15383;48.408;9.968;2022-09-12T22:36:43;18.20;90.50
28071;DHT22;15383;48.408;9.968;2022-09-12T22:39:09;18.20;90.50
28071;DHT22;15383;48.408;9.968;2022-09-12T22:41:34;18.10;90.50
28071;DHT22;15383;48.408;9.968;2022-09-12T22:44:00;18.10;90.50
28071;DHT22;15383;48.408;9.968;2022-09-12T22:46:26;18.10;90.50
28071;DHT22;15383;48.408;9.968;2022-09-12T22:48:52;18.10;90.50
28071;DHT22;15383;48.408;9.968;2022-09-12T22:51:19;18.10;90.50
28071;DHT22;15383;48.408;9.968;2022-09-12T22:53:45;18.10;90.50
28071;DHT22;15383;48.408;9.968;2022-09-12T22:56:11;18.10;90.50
28071;DHT22;15383;48.408;9.968;2022-09-12T22:58:37;18.10;90.50
28071;DHT22;15383;48.408;9.968;2022-09-12T23:01:06;18.10;90.50
28071;DHT22;15383;48.408;9.968;2022-09-12T23:03:32;18.10;90.50
28071;DHT22;15383;48.408;9.968;2022-09-12T23:05:58;18.10;90.60
28071;DHT22;15383;48.408;9.968;2022-09-12T23:08:23;18.10;90.60
28071;DHT22;15383;48.408;9.968;2022-09-12T23:11:10;18.10;90.60
28071;DHT22;15383;48.408;9.968;2022-09-12T23:13:37;18.10;90.60
28071;DHT22;15383;48.408;9.968;2022-09-12T23:16:04;18.10;90.60
28071;DHT22;15383;48.408;9.968;2022-09-12T23:18:33;18.10;90.60
28071;DHT22;15383;48.408;9.968;2022-09-12T23:21:03;18.10;90.60
28071;DHT22;15383;48.408;9.968;2022-09-12T23:23:29;18.10;90.60
28071;DHT22;15383;48.408;9.968;2022-09-12T23:26:05;18.10;90.60
28071;DHT22;15383;48.408;9.968;2022-09-12T23:28:32;18.00;90.50
28071;DHT22;15383;48.408;9.968;2022-09-12T23:30:58;18.00;90.50
28071;DHT22;15383;48.408;9.968;2022-09-12T23:33:25;18.00;90.50
28071;DHT22;15383;48.408;9.968;2022-09-12T23:35:59;18.00;90.90
28071;DHT22;15383;48.408;9.968;2022-09-12T23:38:26;18.00;90.60
28071;DHT22;15383;48.408;9.968;2022-09-12T23:40:52;18.00;90.60
28071;DHT22;15383;48.408;9.968;2022-09-12T23:43:18;18.00;90.60
28071;DHT22;15383;48.408;9.968;2022-09-12T23:45:43;18.00;90.60
28071;DHT22;15383;48.408;9.968;2022-09-12T23:48:09;18.00;90.60
28071;DHT22;15383;48.408;9.968;2022-09-12T23:50:35;18.00;90.60
28071;DHT22;15383;48.408;9.968;2022-09-12T23:59:34;17.90;90.60
